APL Coral — WDF6832 — position and weather

sailwx.info

Track history (hours):
 
Tides and Currents Weather Stations Pressure Air Temp Water Temp Dewpoint Dewpoint Depression Visibility Wind Speed Wind Dir Waves Ship Positions

APL Coral

Owner: APL Maritime Ltd., Bethesda, MD. More information available from US FCC via Universal Licensing System and Coast Guard Vessel Documentation Center.

Last reported at 2015-May-06 06:00 UTC. Time now 2015-May-06 09:27 UTC.
Position N 36°18' W 003°48'.

Length 275 m; draft 13.2 m.

Type: Cargo ship. MMSI: 367478280.

Wind from 270 at 10 knots

Waves 1.0 meters (3 feet), 2 second period

Barometer 1013.0 mb
Air temperature 18.0 ° C
Visibility: greater than 10.8 NM
Dewpoint 12.7 ° C
Water temperature 18.0 ° C

Date/timePositionNaut miles runAvg speedWind from/ knotsBaromVisibWave heightAir tempDewpointWater temp
2015-May-06 06:00N 36°18' W 003°48'4317.8 270 / 101013.010.8 1.018.012.718.0
2015-May-06 03:33N 36°25' W 002°55'1919.1
2015-May-06 02:34N 36°26' W 002°31'2019.6
2015-May-06 01:33N 36°27' W 002°07'2019.7
2015-May-06 00:33N 36°34' W 001°44'2019.2
2015-May-05 23:31N 36°41' W 001°21'1919.1
2015-May-05 22:32N 36°48' W 000°59'1818.6
2015-May-05 21:33N 36°54' W 000°37'2018.9
2015-May-05 20:29N 37°02' W 000°14'1819.4
2015-May-05 19:33N 37°09' E 000°07'2019.7
2015-May-05 18:33N 37°16' E 000°30'2019.7
2015-May-05 17:33N 37°23' E 000°53'2019.9
2015-May-05 16:33N 37°30' E 001°17'2019.9
2015-May-05 15:33N 37°37' E 001°40'2020.2
2015-May-05 14:33N 37°44' E 002°04'2020.1
2015-May-05 13:33N 37°51' E 002°28'2019.8
2015-May-05 12:33N 37°58' E 002°51'2019.4
2015-May-05 11:33N 38°05' E 003°15'1919.2
2015-May-05 10:33N 38°10' E 003°37'1919.1
2015-May-05 09:33N 38°14' E 004°01'1919.1
2015-May-05 08:33N 38°17' E 004°25'3818.7
2015-May-05 06:30N 38°21' E 005°14'1818.9
2015-May-05 05:33N 38°23' E 005°37'1818.4
2015-May-05 04:33N 38°26' E 005°60'1818.4
2015-May-05 03:33N 38°27' E 006°23'6019.4
2015-May-05 00:29N 38°35' E 007°39'1919.8
2015-May-04 23:32N 38°38' E 008°03'2519.8
2015-May-04 22:17N 38°41' E 008°34'1419.4
2015-May-04 21:33N 38°43' E 008°52'1918.8
2015-May-04 20:33N 38°57' E 009°08'1312.8
2015-May-04 19:33N 39°10' E 009°06'3 3.3
2015-May-04 18:33N 39°13' E 009°04'0 0.0
2015-May-04 17:33N 39°13' E 009°04'0 0.0
2015-May-04 16:33N 39°13' E 009°04'0 0.0
2015-May-04 15:30N 39°13' E 009°04'0 0.0
2015-May-04 14:33N 39°13' E 009°04'0 0.0
2015-May-04 13:33N 39°13' E 009°04'0 0.0
2015-May-04 12:33N 39°13' E 009°04'0 0.0
2015-May-04 11:33N 39°13' E 009°04'0 0.0
2015-May-04 10:33N 39°13' E 009°04'0 0.0
2015-May-04 09:33N 39°13' E 009°04'0 0.0
2015-May-04 08:33N 39°13' E 009°04'0 0.0
2015-May-04 07:30N 39°13' E 009°04'0 0.0
2015-May-04 06:33N 39°13' E 009°04'0 0.0
2015-May-04 05:33N 39°13' E 009°04'0 0.0
2015-May-04 04:33N 39°13' E 009°04'5 5.4
2015-May-04 03:34N 39°08' E 009°06'2020.1
2015-May-04 02:33N 38°56' E 009°27'2020.6
2015-May-04 01:33N 38°46' E 009°50'2120.7
2015-May-04 00:33N 38°35' E 010°12'2120.8
2015-May-03 23:33N 38°24' E 010°35'2120.8
2015-May-03 22:32N 38°13' E 010°58'2020.7
2015-May-03 21:33N 38°02' E 011°19'2420.6
2015-May-03 20:24N 37°49' E 011°45'1720.4
2015-May-03 19:33N 37°40' E 012°03'2120.8
2015-May-03 18:33N 37°28' E 012°25'2120.3
2015-May-03 17:31N 37°18' E 012°48'2620.5
2015-May-03 16:16N 37°04' E 013°15'1420.3
2015-May-03 15:33N 36°56' E 013°30'2020.0
2015-May-03 14:34N 36°46' E 013°52'2120.5
2015-May-03 13:34N 36°36' E 014°14'2019.9
2015-May-03 12:33N 36°26' E 014°36'2019.9
2015-May-03 11:33N 36°19' E 014°59'2020.3
2015-May-03 10:33N 36°14' E 015°23'2120.2
2015-May-03 09:30N 36°07' E 015°48'1920.4
2015-May-03 08:33N 36°01' E 016°11'2120.5
2015-May-03 07:33N 35°55' E 016°35'2420.3
2015-May-03 06:22N 35°47' E 017°03'923.1
2015-May-03 06:00N 35°42' E 017°12'1920.0 300 / 101012.010.8 0.520.014.919.0
2015-May-03 05:04N 35°39' E 017°35'1019.7
2015-May-03 04:33N 35°36' E 017°46'2019.8
2015-May-03 03:33N 35°30' E 018°10'2219.5
2015-May-03 02:25N 35°23' E 018°36'2419.7
2015-May-03 01:12N 35°17' E 019°04'1719.9
2015-May-03 00:21N 35°12' E 019°23'2119.9
2015-May-02 23:19N 35°05' E 019°48'1519.9
2015-May-02 22:33N 35°00' E 020°05'2019.9
2015-May-02 21:33N 34°54' E 020°28'2019.9
2015-May-02 20:33N 34°48' E 020°51'2020.0
2015-May-02 19:33N 34°42' E 021°14'2019.8
2015-May-02 18:33N 34°37' E 021°38'8419.6
2015-May-02 14:18N 34°11' E 023°14'1819.6
2015-May-02 13:23N 34°05' E 023°34'2120.0
2015-May-02 12:20N 33°59' E 023°58'42019.3
2015-May-01 14:33N 31°33' E 031°46'  
2015-Apr-27 06:00N 14°12' E 042°18'   1009.210.8 29.024.830.0
Track history (hours):
 
Tides and Currents Weather Stations Pressure Air Temp Water Temp Dewpoint Dewpoint Depression Visibility Wind Speed Wind Dir Waves Ship Positions

APL Coral

Owner: APL Maritime Ltd., Bethesda, MD. More information available from US FCC via Universal Licensing System and Coast Guard Vessel Documentation Center.

Last reported at 2015-May-06 06:00 UTC. Time now 2015-May-06 09:27 UTC.
Position N 36°18' W 003°48'.

Length 275 m; draft 13.2 m.

Type: Cargo ship. MMSI: 367478280.

Wind from 270 at 10 knots

Waves 1.0 meters (3 feet), 2 second period

Barometer 1013.0 mb
Air temperature 18.0 ° C
Visibility: greater than 10.8 NM
Dewpoint 12.7 ° C
Water temperature 18.0 ° C

Date/timePositionNaut miles runAvg speedWind from/ knotsBaromVisibWave heightAir tempDewpointWater temp
2015-May-06 06:00N 36°18' W 003°48'4317.8 270 / 101013.010.8 1.018.012.718.0
2015-May-06 03:33N 36°25' W 002°55'1919.1
2015-May-06 02:34N 36°26' W 002°31'2019.6
2015-May-06 01:33N 36°27' W 002°07'2019.7
2015-May-06 00:33N 36°34' W 001°44'2019.2
2015-May-05 23:31N 36°41' W 001°21'1919.1
2015-May-05 22:32N 36°48' W 000°59'1818.6
2015-May-05 21:33N 36°54' W 000°37'2018.9
2015-May-05 20:29N 37°02' W 000°14'1819.4
2015-May-05 19:33N 37°09' E 000°07'2019.7
2015-May-05 18:33N 37°16' E 000°30'2019.7
2015-May-05 17:33N 37°23' E 000°53'2019.9
2015-May-05 16:33N 37°30' E 001°17'2019.9
2015-May-05 15:33N 37°37' E 001°40'2020.2
2015-May-05 14:33N 37°44' E 002°04'2020.1
2015-May-05 13:33N 37°51' E 002°28'2019.8
2015-May-05 12:33N 37°58' E 002°51'2019.4
2015-May-05 11:33N 38°05' E 003°15'1919.2
2015-May-05 10:33N 38°10' E 003°37'1919.1
2015-May-05 09:33N 38°14' E 004°01'1919.1
2015-May-05 08:33N 38°17' E 004°25'3818.7
2015-May-05 06:30N 38°21' E 005°14'1818.9
2015-May-05 05:33N 38°23' E 005°37'1818.4
2015-May-05 04:33N 38°26' E 005°60'1818.4
2015-May-05 03:33N 38°27' E 006°23'6019.4
2015-May-05 00:29N 38°35' E 007°39'1919.8
2015-May-04 23:32N 38°38' E 008°03'2519.8
2015-May-04 22:17N 38°41' E 008°34'1419.4
2015-May-04 21:33N 38°43' E 008°52'1918.8
2015-May-04 20:33N 38°57' E 009°08'1312.8
2015-May-04 19:33N 39°10' E 009°06'3 3.3
2015-May-04 18:33N 39°13' E 009°04'0 0.0
2015-May-04 17:33N 39°13' E 009°04'0 0.0
2015-May-04 16:33N 39°13' E 009°04'0 0.0
2015-May-04 15:30N 39°13' E 009°04'0 0.0
2015-May-04 14:33N 39°13' E 009°04'0 0.0
2015-May-04 13:33N 39°13' E 009°04'0 0.0
2015-May-04 12:33N 39°13' E 009°04'0 0.0
2015-May-04 11:33N 39°13' E 009°04'0 0.0
2015-May-04 10:33N 39°13' E 009°04'0 0.0
2015-May-04 09:33N 39°13' E 009°04'0 0.0
2015-May-04 08:33N 39°13' E 009°04'0 0.0
2015-May-04 07:30N 39°13' E 009°04'0 0.0
2015-May-04 06:33N 39°13' E 009°04'0 0.0
2015-May-04 05:33N 39°13' E 009°04'0 0.0
2015-May-04 04:33N 39°13' E 009°04'5 5.4
2015-May-04 03:34N 39°08' E 009°06'2020.1
2015-May-04 02:33N 38°56' E 009°27'2020.6
2015-May-04 01:33N 38°46' E 009°50'2120.7
2015-May-04 00:33N 38°35' E 010°12'2120.8
2015-May-03 23:33N 38°24' E 010°35'2120.8
2015-May-03 22:32N 38°13' E 010°58'2020.7
2015-May-03 21:33N 38°02' E 011°19'2420.6
2015-May-03 20:24N 37°49' E 011°45'1720.4
2015-May-03 19:33N 37°40' E 012°03'2120.8
2015-May-03 18:33N 37°28' E 012°25'2120.3
2015-May-03 17:31N 37°18' E 012°48'2620.5
2015-May-03 16:16N 37°04' E 013°15'1420.3
2015-May-03 15:33N 36°56' E 013°30'2020.0
2015-May-03 14:34N 36°46' E 013°52'2120.5
2015-May-03 13:34N 36°36' E 014°14'2019.9
2015-May-03 12:33N 36°26' E 014°36'2019.9
2015-May-03 11:33N 36°19' E 014°59'2020.3
2015-May-03 10:33N 36°14' E 015°23'2120.2
2015-May-03 09:30N 36°07' E 015°48'1920.4
2015-May-03 08:33N 36°01' E 016°11'2120.5
2015-May-03 07:33N 35°55' E 016°35'2420.3
2015-May-03 06:22N 35°47' E 017°03'923.1
2015-May-03 06:00N 35°42' E 017°12'1920.0 300 / 101012.010.8 0.520.014.919.0
2015-May-03 05:04N 35°39' E 017°35'1019.7
2015-May-03 04:33N 35°36' E 017°46'2019.8
2015-May-03 03:33N 35°30' E 018°10'2219.5
2015-May-03 02:25N 35°23' E 018°36'2419.7
2015-May-03 01:12N 35°17' E 019°04'1719.9
2015-May-03 00:21N 35°12' E 019°23'2119.9
2015-May-02 23:19N 35°05' E 019°48'1519.9
2015-May-02 22:33N 35°00' E 020°05'2019.9
2015-May-02 21:33N 34°54' E 020°28'2019.9
2015-May-02 20:33N 34°48' E 020°51'2020.0
2015-May-02 19:33N 34°42' E 021°14'2019.8
2015-May-02 18:33N 34°37' E 021°38'8419.6
2015-May-02 14:18N 34°11' E 023°14'1819.6
2015-May-02 13:23N 34°05' E 023°34'2120.0
2015-May-02 12:20N 33°59' E 023°58'42019.3
2015-May-01 14:33N 31°33' E 031°46'  
2015-Apr-27 06:00N 14°12' E 042°18'   1009.210.8 29.024.830.0

Dump ship's entire track history